SPCL/PCL METAR and TAF weather

Enter ICAO airport designator
Station Type Date Time Source
SPCL METAR 2022/11/27 03:00 UTC NOAA

SPCL 270300Z 05003KT 9999 SCT020 27/21 Q1010 RMK PP000


Station Type Date Time Source
SPCL Decoded METAR 2022/11/27 03:00 UTC NOAA

Pucallpa, Peru (SPCL) 08-25S 074-36W 149M
Nov 26, 2022 - 10:00 PM EST / 2022.11.27 0300 UTC
Wind: from the NE (050 degrees) at 3 MPH (3 KT):0
Visibility: greater than 7 mile(s):0
Sky conditions: partly cloudy
Temperature: 80 F (27 C)
Dew Point: 69 F (21 C)
Relative Humidity: 69%
Pressure (altimeter): 29.83 in. Hg (1010 hPa)
ob: SPCL 270300Z 05003KT 9999 SCT020 27/21 Q1010 RMK PP000
cycle: 3

Station Type Date Time Source
SPCL TAF 2022/11/26 18:33 UTC NOAA

TAF TAF SPCL 261700Z 2618/2718 21005KT 9999 SCT025 TX33/2618Z TN22/2711Z
TEMPO 2620/2624 12015KT 2000 TSRA BKN010 FEW025CB BKN080
TEMPO 2710/2714 2000 BCFG BKN005 OVC080

Example: see airport list